Time;durP1;ratioP1;P1;durP2;ratioP2;P2;SDS_P1;SDS_P2;PMS_P1;PMS_P2;Temp;Humidity;BMP_temperature;BMP_pressure;BME280_temperature;BME280_humidity;BME280_pressure;Samples;Min_cycle;Max_cycle;Signal;HPM_P1;HPM_P2
2023/07/05 00:00:19;;;;;;;9.13;3.20;;;17.40;99.90;;;;;;5094233;28;20578;-50
2023/07/05 00:02:45;;;;;;;8.63;2.83;;;17.40;99.90;;;;;;5094574;28;20220;-49
2023/07/05 00:05:11;;;;;;;11.33;3.40;;;17.30;99.90;;;;;;5094216;28;20183;-51
2023/07/05 00:07:37;;;;;;;6.77;2.50;;;17.30;99.90;;;;;;5094311;28;20182;-49
2023/07/05 00:10:03;;;;;;;6.13;2.33;;;17.20;99.90;;;;;;5092927;28;20174;-50
2023/07/05 00:12:28;;;;;;;10.43;2.30;;;17.20;99.90;;;;;;5094175;28;20186;-50
2023/07/05 00:14:54;;;;;;;6.90;3.20;;;17.20;99.90;;;;;;5094085;28;20202;-51
2023/07/05 00:17:20;;;;;;;5.97;2.77;;;17.20;99.90;;;;;;5093697;28;20182;-51
2023/07/05 00:19:50;;;;;;;7.23;2.70;;;17.10;99.90;;;;;;5093475;28;20320;-49
2023/07/05 00:22:15;;;;;;;10.30;3.13;;;17.20;99.90;;;;;;5094186;28;20277;-51
2023/07/05 00:24:41;;;;;;;9.17;2.30;;;17.10;99.90;;;;;;5093873;28;20256;-51
2023/07/05 00:27:06;;;;;;;8.03;2.43;;;17.00;99.90;;;;;;5093921;28;20175;-51
2023/07/05 00:29:32;;;;;;;8.67;2.50;;;17.00;99.90;;;;;;5093777;28;20197;-49
2023/07/05 00:31:58;;;;;;;3.27;2.17;;;17.00;99.90;;;;;;5094118;28;20189;-50
2023/07/05 00:34:23;;;;;;;7.90;2.63;;;17.00;99.90;;;;;;5093711;28;20291;-51
2023/07/05 00:36:49;;;;;;;6.73;2.60;;;17.00;99.90;;;;;;5094328;28;20245;-50
2023/07/05 00:39:15;;;;;;;11.80;3.20;;;17.00;99.90;;;;;;5093456;28;20191;-49
2023/07/05 00:41:41;;;;;;;9.30;2.47;;;17.00;99.90;;;;;;5094410;28;20293;-48
2023/07/05 00:44:06;;;;;;;3.53;2.20;;;17.00;99.90;;;;;;5093841;28;20175;-50
2023/07/05 00:46:34;;;;;;;6.03;2.20;;;17.00;99.90;;;;;;5093919;28;20228;-48
2023/07/05 00:49:14;;;;;;;9.23;2.30;;;17.00;99.90;;;;;;5093614;28;20171;-49
2023/07/05 00:51:53;;;;;;;2.97;2.00;;;17.00;99.90;;;;;;5093907;28;20213;-49
2023/07/05 00:54:24;;;;;;;2.60;1.97;;;17.00;99.90;;;;;;5095202;28;20625;-50
2023/07/05 00:56:52;;;;;;;3.00;2.03;;;17.00;99.90;;;;;;5093508;28;20635;-49
2023/07/05 00:59:20;;;;;;;8.37;2.30;;;17.00;99.90;;;;;;5093429;28;20257;-48
2023/07/05 01:01:46;;;;;;;5.53;2.40;;;17.00;99.90;;;;;;5093436;28;20206;-49
2023/07/05 01:04:11;;;;;;;5.47;2.50;;;17.00;99.90;;;;;;5093389;28;20198;-49
2023/07/05 01:06:39;;;;;;;3.33;1.83;;;17.00;99.90;;;;;;5093471;28;20268;-48
2023/07/05 01:09:06;;;;;;;3.60;2.03;;;17.00;99.90;;;;;;5093577;28;20179;-48
2023/07/05 01:12:04;;;;;;;4.37;2.37;;;17.00;99.90;;;;;;5093627;28;20183;-49
2023/07/05 01:14:29;;;;;;;5.80;2.07;;;17.00;99.90;;;;;;5092241;28;20241;-49
2023/07/05 01:17:19;;;;;;;5.80;2.10;;;17.00;99.90;;;;;;5093285;28;20206;-49
2023/07/05 01:20:01;;;;;;;8.40;1.93;;;17.00;99.90;;;;;;5093435;28;20199;-49
2023/07/05 01:22:51;;;;;;;7.27;2.20;;;17.00;99.90;;;;;;5093426;28;20185;-49
2023/07/05 01:26:04;;;;;;;3.97;1.93;;;17.00;99.90;;;;;;5093666;28;20263;-49
2023/07/05 01:28:41;;;;;;;6.53;1.63;;;17.00;99.90;;;;;;5093549;28;20164;-48
2023/07/05 01:31:32;;;;;;;10.20;2.10;;;17.00;99.90;;;;;;5097335;28;20177;-48
2023/07/05 01:34:09;;;;;;;5.07;1.57;;;17.00;99.90;;;;;;5097465;28;20183;-48
2023/07/05 01:36:35;;;;;;;4.20;1.70;;;17.00;99.90;;;;;;5097448;28;20171;-48
2023/07/05 01:39:01;;;;;;;8.90;2.00;;;17.00;99.90;;;;;;5097230;28;20195;-49
2023/07/05 01:41:26;;;;;;;4.53;2.20;;;17.10;99.90;;;;;;5097134;28;20209;-48
2023/07/05 01:43:52;;;;;;;5.23;2.60;;;17.10;99.90;;;;;;5096988;28;20255;-49
2023/07/05 01:46:27;;;;;;;7.97;1.90;;;17.10;99.90;;;;;;5096888;28;20545;-50
2023/07/05 01:49:01;;;;;;;8.00;1.83;;;17.10;99.90;;;;;;5097914;28;20316;-45
2023/07/05 01:52:04;;;;;;;5.23;2.23;;;17.10;99.90;;;;;;5097008;28;20208;-45
2023/07/05 01:55:00;;;;;;;3.67;1.70;;;17.10;99.90;;;;;;5096907;28;20606;-42
2023/07/05 01:57:39;;;;;;;5.30;1.80;;;17.10;99.90;;;;;;5096475;28;20191;-43
2023/07/05 02:00:17;;;;;;;2.67;1.40;;;17.10;99.90;;;;;;5097258;28;20159;-46
2023/07/05 02:02:50;;;;;;;4.10;1.40;;;17.00;99.90;;;;;;5097284;28;20269;-44
2023/07/05 02:05:16;;;;;;;3.20;1.10;;;17.10;99.90;;;;;;5096761;28;20194;-44
2023/07/05 02:07:44;;;;;;;5.03;1.53;;;17.10;99.90;;;;;;5096892;28;20182;-43
2023/07/05 02:10:10;;;;;;;1.43;1.30;;;17.00;99.90;;;;;;5096638;28;20221;-43
2023/07/05 02:12:36;;;;;;;4.50;2.03;;;17.00;99.90;;;;;;5096515;28;20222;-42
2023/07/05 02:15:02;;;;;;;2.93;1.30;;;17.00;99.90;;;;;;5096601;28;20726;-44
2023/07/05 02:17:28;;;;;;;1.73;1.33;;;16.90;99.90;;;;;;5096526;28;20224;-42
2023/07/05 02:19:54;;;;;;;2.33;1.50;;;16.90;99.90;;;;;;5096442;28;20647;-43
2023/07/05 02:22:19;;;;;;;1.83;1.23;;;16.90;99.90;;;;;;5096594;28;20198;-41
2023/07/05 02:24:50;;;;;;;2.97;1.60;;;16.90;99.90;;;;;;5096300;28;20191;-43
2023/07/05 02:27:16;;;;;;;5.47;1.50;;;16.80;99.90;;;;;;5096707;28;20191;-42
2023/07/05 02:29:42;;;;;;;3.40;1.30;;;16.80;99.90;;;;;;5096532;28;20234;-44
2023/07/05 02:32:08;;;;;;;1.87;1.37;;;16.80;99.90;;;;;;5096211;28;20745;-42
2023/07/05 02:34:40;;;;;;;2.93;1.13;;;16.80;99.90;;;;;;5095990;28;20210;-42
2023/07/05 02:37:06;;;;;;;3.63;1.43;;;16.80;99.90;;;;;;5096586;28;20595;-42
2023/07/05 02:39:31;;;;;;;3.23;1.30;;;16.80;99.90;;;;;;5095934;28;20217;-43
2023/07/05 02:41:57;;;;;;;1.67;0.93;;;16.80;99.90;;;;;;5094949;28;20238;-43
2023/07/05 02:44:22;;;;;;;4.80;1.63;;;16.70;99.90;;;;;;5095780;28;20252;-43
2023/07/05 02:46:48;;;;;;;2.20;1.20;;;16.80;99.90;;;;;;5096129;28;20528;-42
2023/07/05 02:49:14;;;;;;;1.93;0.80;;;16.70;99.90;;;;;;5096842;28;20179;-46
2023/07/05 02:51:39;;;;;;;1.53;0.90;;;16.70;99.90;;;;;;5096023;28;20187;-49
2023/07/05 02:54:05;;;;;;;1.23;0.93;;;16.50;99.90;;;;;;5095882;28;20246;-48
2023/07/05 02:56:30;;;;;;;1.87;1.17;;;16.40;99.90;;;;;;5095953;28;20179;-47
2023/07/05 02:58:56;;;;;;;1.43;0.90;;;16.40;99.90;;;;;;5095649;28;20197;-49
2023/07/05 03:01:21;;;;;;;5.00;1.27;;;16.30;99.90;;;;;;5095983;28;20202;-48
2023/07/05 03:03:47;;;;;;;2.07;1.10;;;16.20;99.90;;;;;;5095580;28;20213;-48
2023/07/05 03:06:12;;;;;;;2.53;1.40;;;16.10;99.90;;;;;;5095479;28;20202;-46
2023/07/05 03:08:38;;;;;;;2.90;1.47;;;15.90;99.90;;;;;;5095663;28;20516;-47
2023/07/05 03:11:04;;;;;;;2.13;1.20;;;15.90;99.90;;;;;;5095450;28;20171;-49
2023/07/05 03:13:32;;;;;;;1.57;1.20;;;15.80;99.90;;;;;;5094094;28;20190;-48
2023/07/05 03:15:58;;;;;;;4.03;1.43;;;15.70;99.90;;;;;;5095542;28;20626;-49
2023/07/05 03:18:25;;;;;;;1.30;0.87;;;15.60;99.90;;;;;;5095630;28;20713;-47
2023/07/05 03:20:50;;;;;;;2.30;1.40;;;15.50;99.90;;;;;;5095120;28;20222;-48
2023/07/05 03:23:17;;;;;;;4.87;1.67;;;15.40;99.90;;;;;;5095614;28;20198;-48
2023/07/05 03:25:55;;;;;;;3.13;1.13;;;15.40;99.90;;;;;;5095127;28;20598;-48
2023/07/05 03:28:21;;;;;;;5.03;1.97;;;15.30;99.90;;;;;;5094981;28;20646;-48
2023/07/05 03:31:02;;;;;;;4.33;1.50;;;15.30;99.90;;;;;;5094982;28;20188;-48
2023/07/05 03:33:29;;;;;;;4.10;1.17;;;15.20;99.90;;;;;;5095197;28;20584;-49
2023/07/05 03:35:55;;;;;;;3.67;1.90;;;15.20;99.90;;;;;;5094855;28;20296;-47
2023/07/05 03:38:22;;;;;;;2.00;1.37;;;15.10;99.90;;;;;;5094998;28;20202;-49
2023/07/05 03:40:59;;;;;;;3.60;1.77;;;15.10;99.90;;;;;;5094776;28;20207;-48
2023/07/05 03:43:26;;;;;;;3.20;1.90;;;15.00;99.90;;;;;;5095051;28;20162;-48
2023/07/05 03:45:52;;;;;;;4.70;1.73;;;15.00;99.90;;;;;;5094975;28;20203;-47
2023/07/05 03:48:20;;;;;;;7.10;2.03;;;14.90;99.90;;;;;;5096201;28;20254;-46
2023/07/05 03:50:46;;;;;;;2.93;1.77;;;14.80;99.90;;;;;;5094875;28;20256;-48
2023/07/05 03:53:11;;;;;;;3.17;1.40;;;14.70;99.90;;;;;;5094403;28;20222;-49
2023/07/05 03:55:37;;;;;;;2.40;1.80;;;14.70;99.90;;;;;;5094748;28;20199;-47
2023/07/05 03:58:02;;;;;;;2.37;1.73;;;14.60;99.90;;;;;;5094543;28;20175;-49
2023/07/05 04:00:28;;;;;;;2.70;1.63;;;14.60;99.90;;;;;;5094568;28;20256;-48
2023/07/05 04:02:54;;;;;;;2.97;1.73;;;14.50;99.90;;;;;;5093193;28;20528;-47
2023/07/05 04:05:20;;;;;;;3.70;1.67;;;14.50;99.90;;;;;;5094749;28;20199;-48
2023/07/05 04:07:46;;;;;;;3.27;2.43;;;14.40;99.90;;;;;;5094565;28;20605;-47
2023/07/05 04:10:11;;;;;;;3.70;2.07;;;14.40;99.90;;;;;;5094323;28;20224;-47
2023/07/05 04:12:37;;;;;;;8.10;2.27;;;14.50;99.90;;;;;;5094333;28;20666;-47
2023/07/05 04:15:03;;;;;;;3.83;2.17;;;14.50;99.90;;;;;;5094153;28;20678;-48
2023/07/05 04:17:30;;;;;;;4.63;2.30;;;14.50;99.90;;;;;;5094109;28;20178;-46
2023/07/05 04:19:55;;;;;;;3.33;2.37;;;14.50;99.90;;;;;;5094152;28;20202;-49
2023/07/05 04:22:21;;;;;;;4.07;2.10;;;14.50;99.90;;;;;;5094059;28;20237;-47
2023/07/05 04:24:46;;;;;;;4.13;2.23;;;14.50;99.90;;;;;;5094158;28;20195;-45
2023/07/05 04:27:14;;;;;;;3.63;2.23;;;14.50;99.90;;;;;;5094289;28;20236;-46
2023/07/05 04:29:39;;;;;;;7.53;2.57;;;14.50;99.90;;;;;;5094108;28;20182;-46
2023/07/05 04:32:06;;;;;;;4.40;2.60;;;14.50;99.90;;;;;;5094143;28;20709;-47
2023/07/05 04:34:32;;;;;;;3.70;2.07;;;14.50;99.90;;;;;;5094287;28;20187;-46
2023/07/05 04:36:57;;;;;;;3.37;2.03;;;14.50;99.90;;;;;;5093861;28;20179;-46
2023/07/05 04:39:23;;;;;;;3.87;2.33;;;14.50;99.90;;;;;;5093733;28;20197;-47
2023/07/05 04:41:49;;;;;;;4.10;2.10;;;14.60;99.90;;;;;;5094008;28;20612;-46
2023/07/05 04:44:14;;;;;;;5.37;2.97;;;14.60;99.90;;;;;;5093583;28;20186;-47
2023/07/05 04:46:40;;;;;;;4.37;2.40;;;14.60;99.90;;;;;;5093846;28;20236;-48
2023/07/05 04:49:05;;;;;;;3.27;2.40;;;14.60;99.90;;;;;;5095068;28;20542;-47
2023/07/05 04:51:32;;;;;;;5.33;2.87;;;14.60;99.90;;;;;;5093707;28;20178;-48
2023/07/05 04:53:57;;;;;;;3.60;2.33;;;14.60;99.90;;;;;;5093512;28;20716;-47
2023/07/05 04:56:23;;;;;;;6.87;2.80;;;14.60;99.90;;;;;;5093666;28;20195;-48
2023/07/05 04:58:48;;;;;;;3.23;2.33;;;14.60;99.90;;;;;;5093595;28;20582;-47
2023/07/05 05:01:14;;;;;;;3.60;2.17;;;14.60;99.90;;;;;;5094090;28;20201;-47
2023/07/05 05:03:40;;;;;;;4.03;2.40;;;14.60;99.90;;;;;;5093616;28;20178;-46
2023/07/05 05:06:06;;;;;;;4.80;2.40;;;14.60;99.90;;;;;;5094233;28;20191;-47
2023/07/05 05:08:32;;;;;;;4.00;2.43;;;14.70;99.90;;;;;;5094173;28;20175;-48
2023/07/05 05:11:00;;;;;;;4.97;2.40;;;14.70;99.90;;;;;;5094225;28;20651;-48
2023/07/05 05:13:27;;;;;;;6.67;2.70;;;14.60;99.90;;;;;;5096390;28;20718;-49
2023/07/05 05:15:54;;;;;;;4.53;2.30;;;14.60;99.90;;;;;;5096232;28;20571;-47
2023/07/05 05:18:19;;;;;;;3.07;2.20;;;14.60;99.90;;;;;;5097824;28;20175;-48
2023/07/05 05:20:46;;;;;;;3.30;2.17;;;14.60;99.90;;;;;;5096894;28;20218;-47
2023/07/05 05:23:12;;;;;;;2.63;1.87;;;14.60;99.90;;;;;;5093506;28;20257;-47
2023/07/05 05:25:42;;;;;;;3.10;2.00;;;14.60;99.90;;;;;;5093821;28;20630;-47
2023/07/05 05:28:08;;;;;;;5.03;2.17;;;14.60;99.90;;;;;;5092511;28;20167;-47
2023/07/05 05:30:35;;;;;;;4.67;2.83;;;14.70;99.90;;;;;;5093529;28;20586;-45
2023/07/05 05:33:02;;;;;;;4.17;2.50;;;14.60;99.90;;;;;;5093578;28;20190;-47
2023/07/05 05:35:27;;;;;;;4.33;1.97;;;14.70;99.90;;;;;;5093216;28;20197;-47
2023/07/05 05:37:53;;;;;;;3.00;1.97;;;14.60;99.90;;;;;;5093359;28;20164;-45
2023/07/05 05:40:19;;;;;;;3.97;2.47;;;14.60;99.90;;;;;;5093304;28;20254;-46
2023/07/05 05:42:45;;;;;;;6.53;2.27;;;14.60;99.90;;;;;;5093085;28;20213;-49
2023/07/05 05:45:10;;;;;;;5.50;2.13;;;14.60;99.90;;;;;;5093571;28;20191;-48
2023/07/05 05:47:36;;;;;;;9.17;2.50;;;14.50;99.90;;;;;;5093653;28;20176;-48
2023/07/05 05:50:02;;;;;;;4.73;2.10;;;14.60;99.90;;;;;;5094443;28;20174;-45
2023/07/05 05:52:27;;;;;;;5.43;2.33;;;14.50;99.90;;;;;;5093147;28;20651;-46
2023/07/05 05:54:53;;;;;;;2.33;2.00;;;14.60;99.90;;;;;;5093038;28;20199;-46
2023/07/05 05:57:18;;;;;;;2.90;2.10;;;14.60;99.90;;;;;;5093375;28;20229;-45
2023/07/05 05:59:44;;;;;;;4.00;2.30;;;14.60;99.90;;;;;;5092934;28;20182;-47
2023/07/05 06:02:10;;;;;;;5.20;2.13;;;14.70;99.90;;;;;;5093024;28;20213;-46
2023/07/05 06:04:35;;;;;;;6.13;2.17;;;14.70;99.90;;;;;;5093044;28;20194;-47
2023/07/05 06:07:01;;;;;;;2.17;1.60;;;14.80;99.90;;;;;;5093242;28;20582;-46
2023/07/05 06:09:26;;;;;;;5.23;1.50;;;14.80;99.90;;;;;;5092937;28;20198;-45
2023/07/05 06:11:52;;;;;;;3.70;1.53;;;14.90;99.90;;;;;;5093147;28;20258;-46
2023/07/05 06:14:17;;;;;;;3.93;1.60;;;15.10;99.90;;;;;;5092801;28;20186;-45
2023/07/05 06:16:43;;;;;;;2.03;1.40;;;15.10;99.90;;;;;;5094127;28;20558;-47
2023/07/05 06:19:08;;;;;;;4.30;2.10;;;15.30;1.00;;;;;;5096491;28;20274;-46
2023/07/05 06:21:34;;;;;;;8.13;1.70;;;15.40;1.00;;;;;;5096316;28;20213;-45
2023/07/05 06:24:00;;;;;;;3.30;1.50;;;15.40;38.60;;;;;;5096288;28;20183;-47
2023/07/05 06:26:25;;;;;;;3.57;1.80;;;15.40;1.00;;;;;;5096600;28;20183;-45
2023/07/05 06:28:51;;;;;;;3.67;1.90;;;15.30;1.00;;;;;;5096523;28;20650;-46
2023/07/05 06:31:18;;;;;;;3.93;1.50;;;15.40;99.90;;;;;;5096294;28;20209;-45
2023/07/05 06:33:44;;;;;;;3.37;1.87;;;15.50;99.90;;;;;;5096142;28;20268;-46
2023/07/05 06:36:10;;;;;;;3.87;1.90;;;15.60;99.90;;;;;;5096183;28;20295;-45
2023/07/05 06:38:36;;;;;;;3.50;1.23;;;15.80;1.00;;;;;;5096561;28;20187;-46
2023/07/05 06:41:02;;;;;;;1.50;1.10;;;15.90;1.00;;;;;;5096078;28;20191;-46
2023/07/05 06:43:28;;;;;;;4.47;1.50;;;15.90;1.00;;;;;;5096045;28;20636;-45
2023/07/05 06:45:55;;;;;;;6.80;1.23;;;15.80;1.00;;;;;;5096178;28;20259;-47
2023/07/05 06:48:22;;;;;;;3.43;1.60;;;15.80;1.00;;;;;;5097669;28;20166;-45
2023/07/05 06:50:55;;;;;;;3.60;1.70;;;15.70;1.00;;;;;;5095816;28;20266;-46
2023/07/05 06:53:22;;;;;;;2.20;1.67;;;15.70;1.00;;;;;;5095682;28;20191;-45
2023/07/05 06:55:48;;;;;;;6.57;1.70;;;15.70;25.20;;;;;;5095638;28;20281;-47
2023/07/05 06:58:15;;;;;;;9.83;1.67;;;15.80;1.00;;;;;;5095958;28;20266;-46
2023/07/05 07:00:41;;;;;;;6.53;1.50;;;15.80;1.00;;;;;;5095520;28;20175;-46
2023/07/05 07:03:07;;;;;;;3.30;1.40;;;15.80;1.00;;;;;;5095573;28;20171;-46
2023/07/05 07:05:32;;;;;;;2.13;1.30;;;15.80;1.00;;;;;;5095747;28;20238;-42
2023/07/05 07:07:59;;;;;;;2.73;1.60;;;15.70;1.00;;;;;;5094168;28;20186;-39
2023/07/05 07:10:25;;;;;;;3.97;1.30;;;15.60;1.00;;;;;;5095570;28;20190;-43
2023/07/05 07:12:50;;;;;;;2.70;1.30;;;15.60;1.00;;;;;;5095727;28;20182;-40
2023/07/05 07:15:16;;;;;;;4.27;1.33;;;15.70;1.00;;;;;;5095356;28;20203;-43
2023/07/05 07:17:41;;;;;;;1.50;1.00;;;15.70;1.00;;;;;;5095285;28;20191;-44
2023/07/05 07:20:07;;;;;;;4.43;1.27;;;15.90;1.00;;;;;;5095272;28;20187;-39
2023/07/05 07:22:33;;;;;;;7.70;1.33;;;15.90;1.00;;;;;;5095633;28;20195;-42
2023/07/05 07:24:59;;;;;;;5.23;1.20;;;16.00;1.00;;;;;;5095215;28;20278;-41
2023/07/05 07:27:25;;;;;;;2.57;1.40;;;16.00;1.00;;;;;;5095049;28;20197;-42
2023/07/05 07:29:53;;;;;;;5.63;1.73;;;16.10;1.00;;;;;;5095046;28;20640;-44
2023/07/05 07:32:19;;;;;;;2.10;1.00;;;16.00;99.90;;;;;;5095264;28;20239;-42
2023/07/05 07:34:45;;;;;;;4.40;1.00;;;15.90;99.90;;;;;;5095292;28;20206;-44
2023/07/05 07:37:11;;;;;;;2.70;1.10;;;15.80;99.90;;;;;;5095243;28;20191;-41
2023/07/05 07:39:36;;;;;;;2.53;0.97;;;15.80;1.00;;;;;;5094856;28;20634;-41
2023/07/05 07:42:02;;;;;;;1.93;1.00;;;15.80;1.00;;;;;;5094833;28;20286;-43
2023/07/05 07:44:28;;;;;;;6.07;1.00;;;15.80;1.00;;;;;;5094756;28;20195;-43
2023/07/05 07:46:53;;;;;;;4.00;1.07;;;15.90;1.00;;;;;;5095058;28;20179;-42
2023/07/05 07:49:20;;;;;;;3.00;1.13;;;16.00;99.90;;;;;;5095849;28;20182;-48
2023/07/05 07:51:45;;;;;;;4.13;1.20;;;16.20;99.90;;;;;;5095180;28;20179;-48
2023/07/05 07:54:16;;;;;;;5.63;1.23;;;16.30;99.90;;;;;;5094469;28;20213;-46
2023/07/05 07:56:47;;;;;;;3.63;1.10;;;16.50;99.90;;;;;;5094904;28;20239;-47
2023/07/05 07:59:13;;;;;;;3.57;1.00;;;16.60;1.00;;;;;;5094803;28;20179;-47
2023/07/05 08:01:40;;;;;;;1.70;0.67;;;16.80;99.90;;;;;;5094365;28;20565;-48
2023/07/05 08:04:09;;;;;;;1.47;1.10;;;17.00;1.00;;;;;;5094734;28;20257;-46
2023/07/05 08:06:40;;;;;;;6.67;1.00;;;17.10;99.90;;;;;;5094639;28;20190;-48
2023/07/05 08:09:09;;;;;;;4.77;1.00;;;17.30;1.00;;;;;;5094582;28;20320;-47
2023/07/05 08:11:35;;;;;;;1.87;0.70;;;17.30;1.00;;;;;;5094307;28;20183;-46
2023/07/05 08:14:01;;;;;;;5.40;1.30;;;17.30;1.00;;;;;;5094695;28;20170;-47
2023/07/05 08:16:27;;;;;;;1.90;0.90;;;17.40;32.80;;;;;;5094434;28;20183;-48
2023/07/05 08:18:53;;;;;;;5.30;1.27;;;17.50;99.90;;;;;;5094185;28;20189;-48
2023/07/05 08:21:19;;;;;;;2.30;0.97;;;17.60;99.90;;;;;;5094004;28;20216;-46
2023/07/05 08:23:45;;;;;;;2.47;1.10;;;17.70;99.90;;;;;;5094106;28;20608;-49
2023/07/05 08:26:11;;;;;;;7.23;1.43;;;17.70;99.90;;;;;;5094163;28;20555;-48
2023/07/05 08:28:37;;;;;;;5.40;1.07;;;17.90;1.00;;;;;;5093956;28;20241;-49
2023/07/05 08:31:05;;;;;;;3.27;0.87;;;18.00;1.00;;;;;;5094248;28;20187;-47
2023/07/05 08:33:32;;;;;;;2.13;1.50;;;18.00;99.90;;;;;;5093926;28;20186;-48
2023/07/05 08:36:33;;;;;;;2.40;1.23;;;18.00;1.00;;;;;;5092474;28;20694;-48
2023/07/05 08:39:03;;;;;;;3.63;1.13;;;18.10;1.00;;;;;;5093107;28;20205;-49
2023/07/05 08:41:44;;;;;;;2.03;0.93;;;18.10;1.00;;;;;;5093922;28;20206;-49
2023/07/05 08:44:29;;;;;;;5.43;1.13;;;18.20;1.00;;;;;;5093916;28;20159;-48
2023/07/05 08:47:03;;;;;;;3.07;1.00;;;18.30;99.90;;;;;;5093690;28;20158;-47
2023/07/05 08:49:55;;;;;;;7.53;1.53;;;18.30;1.00;;;;;;5095232;28;20175;-48
2023/07/05 08:52:25;;;;;;;5.93;1.30;;;18.20;1.00;;;;;;5093150;28;20195;-46
2023/07/05 08:54:56;;;;;;;8.63;0.97;;;18.30;1.00;;;;;;5093789;28;20210;-46
2023/07/05 08:57:46;;;;;;;6.73;1.37;;;18.50;99.90;;;;;;5093887;28;20191;-45
2023/07/05 09:00:15;;;;;;;4.10;1.37;;;18.50;1.00;;;;;;5094012;28;20160;-47
2023/07/05 09:02:41;;;;;;;4.00;1.10;;;18.50;1.00;;;;;;5093321;28;20694;-47
2023/07/05 09:05:26;;;;;;;4.40;0.90;;;18.60;1.00;;;;;;5093724;28;20194;-48
2023/07/05 09:08:13;;;;;;;8.43;1.30;;;18.50;99.90;;;;;;5093971;28;20242;-48
2023/07/05 09:10:44;;;;;;;3.77;1.40;;;18.70;99.90;;;;;;5093673;28;20159;-47
2023/07/05 09:13:09;;;;;;;5.13;1.20;;;18.60;1.00;;;;;;5093669;28;20178;-46
2023/07/05 09:15:43;;;;;;;4.93;1.50;;;18.70;1.00;;;;;;5094291;28;20202;-47
2023/07/05 09:18:36;;;;;;;7.07;1.73;;;18.60;1.00;;;;;;5093579;28;20159;-47
2023/07/05 09:21:24;;;;;;;4.23;1.40;;;18.60;99.90;;;;;;5093846;28;20191;-46
2023/07/05 09:23:59;;;;;;;6.80;1.50;;;18.60;99.90;;;;;;5093422;28;20169;-47
2023/07/05 09:26:34;;;;;;;6.90;1.33;;;18.70;1.00;;;;;;5093520;28;20202;-46
2023/07/05 09:29:21;;;;;;;5.73;1.10;;;18.80;99.90;;;;;;5093563;28;20199;-46
2023/07/05 09:31:49;;;;;;;1.60;0.90;;;18.90;99.90;;;;;;5093612;28;20186;-47
2023/07/05 09:34:32;;;;;;;4.90;1.60;;;18.80;26.60;;;;;;5093510;28;20190;-48
2023/07/05 09:37:01;;;;;;;4.80;1.50;;;18.90;99.90;;;;;;5093147;28;20174;-50
2023/07/05 09:39:36;;;;;;;3.20;1.00;;;19.00;99.90;;;;;;5092924;28;20199;-48
2023/07/05 09:42:06;;;;;;;13.63;1.40;;;19.10;1.00;;;;;;5093156;28;20198;-49
2023/07/05 09:44:31;;;;;;;5.60;1.07;;;19.20;99.90;;;;;;5093261;28;20679;-49
2023/07/05 09:46:57;;;;;;;3.33;1.27;;;19.20;99.90;;;;;;5093148;28;20265;-48
2023/07/05 09:49:23;;;;;;;7.87;1.40;;;19.20;1.00;;;;;;5092738;28;20266;-46
2023/07/05 09:51:49;;;;;;;5.43;1.30;;;19.40;1.00;;;;;;5096705;28;20187;-47
2023/07/05 09:54:23;;;;;;;8.10;1.73;;;19.60;1.00;;;;;;5096841;28;20178;-47
2023/07/05 09:57:04;;;;;;;3.93;1.30;;;19.80;1.00;;;;;;5097075;28;20171;-48
2023/07/05 09:59:30;;;;;;;5.30;1.37;;;19.90;56.20;;;;;;5097070;28;20201;-48
2023/07/05 10:02:12;;;;;;;6.23;1.23;;;20.00;1.00;;;;;;5096962;28;20191;-48
2023/07/05 10:04:53;;;;;;;3.40;1.03;;;20.10;99.90;;;;;;5096683;28;20207;-48
2023/07/05 10:07:24;;;;;;;5.73;1.40;;;19.90;99.90;;;;;;5096780;28;20224;-47
2023/07/05 10:09:55;;;;;;;3.63;1.20;;;19.80;99.90;;;;;;5096705;28;20174;-48
2023/07/05 10:12:23;;;;;;;4.50;1.30;;;19.70;1.00;;;;;;5096932;28;20636;-48
2023/07/05 10:14:55;;;;;;;4.03;1.07;;;19.90;62.00;;;;;;5096470;28;20198;-47
2023/07/05 10:17:20;;;;;;;3.70;1.00;;;19.90;1.00;;;;;;5097019;28;20182;-44
2023/07/05 10:19:51;;;;;;;7.33;1.50;;;19.90;99.90;;;;;;5096360;28;20183;-45
2023/07/05 10:22:25;;;;;;;4.10;1.10;;;20.00;99.90;;;;;;5095020;28;20564;-44
2023/07/05 10:24:57;;;;;;;6.00;1.60;;;19.90;99.90;;;;;;5096320;28;20657;-43
2023/07/05 10:27:33;;;;;;;3.60;1.20;;;20.00;1.00;;;;;;5096638;28;20529;-44
2023/07/05 10:30:13;;;;;;;4.77;1.30;;;20.20;1.00;;;;;;5096217;28;20178;-43
2023/07/05 10:32:40;;;;;;;4.07;1.00;;;20.30;1.00;;;;;;5096488;28;20170;-43
2023/07/05 10:35:28;;;;;;;2.63;1.00;;;20.30;1.00;;;;;;5096213;28;20202;-43
2023/07/05 10:37:55;;;;;;;4.93;1.20;;;20.40;1.00;;;;;;5096094;28;20174;-42
2023/07/05 10:40:22;;;;;;;9.23;1.43;;;20.50;34.10;;;;;;5095922;28;20186;-45
2023/07/05 10:43:11;;;;;;;3.40;0.97;;;20.60;1.00;;;;;;5096132;28;20569;-45
2023/07/05 10:45:36;;;;;;;5.03;1.00;;;20.50;98.00;;;;;;5094655;28;20282;-44
2023/07/05 10:48:17;;;;;;;6.13;1.67;;;20.50;63.60;;;;;;5096379;28;20252;-45
2023/07/05 10:50:45;;;;;;;2.90;0.97;;;20.50;1.00;;;;;;5095875;28;20158;-44
2023/07/05 10:53:17;;;;;;;2.13;1.27;;;20.50;40.50;;;;;;5095788;28;20670;-43
2023/07/05 10:55:51;;;;;;;5.53;1.20;;;20.60;22.60;;;;;;5095562;28;20207;-44
2023/07/05 10:58:20;;;;;;;4.30;1.40;;;20.80;99.90;;;;;;5095674;28;20216;-44
2023/07/05 11:00:49;;;;;;;5.57;1.43;;;20.90;99.90;;;;;;5095535;28;20201;-43
2023/07/05 11:03:46;;;;;;;5.73;1.27;;;20.80;99.90;;;;;;5094803;28;20179;-43
2023/07/05 11:06:13;;;;;;;11.20;1.33;;;20.80;99.90;;;;;;5095145;28;20214;-42
2023/07/05 11:08:41;;;;;;;2.23;1.20;;;20.90;94.00;;;;;;5095758;28;20543;-41
2023/07/05 11:11:18;;;;;;;9.13;1.60;;;21.00;1.00;;;;;;5095418;28;20596;-48
2023/07/05 11:13:45;;;;;;;8.40;1.10;;;20.90;99.90;;;;;;5095422;28;20175;-49
2023/07/05 11:16:42;;;;;;;2.30;0.97;;;20.80;99.90;;;;;;5095546;28;20203;-48
2023/07/05 11:19:14;;;;;;;6.63;1.30;;;21.00;1.40;;;;;;5093970;28;20195;-48
2023/07/05 11:21:47;;;;;;;5.07;1.33;;;21.10;1.00;;;;;;5095463;28;20244;-49
2023/07/05 11:24:32;;;;;;;3.07;1.10;;;21.10;1.00;;;;;;5095062;28;20232;-48
2023/07/05 11:26:59;;;;;;;5.60;1.30;;;21.10;1.00;;;;;;5095745;28;20167;-49
2023/07/05 11:29:25;;;;;;;4.20;1.33;;;21.30;93.00;;;;;;5095044;28;20174;-48
2023/07/05 11:31:53;;;;;;;4.37;1.60;;;21.50;1.00;;;;;;5095009;28;20177;-49
2023/07/05 11:34:24;;;;;;;4.80;1.57;;;21.50;1.00;;;;;;5095025;28;20214;-48
2023/07/05 11:36:53;;;;;;;5.53;1.63;;;21.40;99.90;;;;;;5094858;28;20262;-49
2023/07/05 11:39:38;;;;;;;3.23;1.50;;;21.20;99.90;;;;;;5094848;28;20190;-50
2023/07/05 11:42:13;;;;;;;6.73;1.93;;;20.80;1.00;;;;;;5093496;28;20203;-50
2023/07/05 11:44:42;;;;;;;11.87;2.00;;;20.60;99.90;;;;;;5094922;28;20270;-50
2023/07/05 11:47:33;;;;;;;6.13;1.60;;;20.70;99.90;;;;;;5094750;28;20583;-49
2023/07/05 11:50:07;;;;;;;6.40;1.40;;;20.90;99.90;;;;;;5096208;28;20203;-43
2023/07/05 11:53:00;;;;;;;3.60;1.13;;;21.10;99.90;;;;;;5094936;28;20155;-43
2023/07/05 11:55:31;;;;;;;3.07;1.20;;;21.40;1.00;;;;;;5094251;28;20213;-44
2023/07/05 11:58:12;;;;;;;3.67;1.40;;;21.50;1.00;;;;;;5094803;28;20181;-44
2023/07/05 12:00:55;;;;;;;4.27;1.47;;;21.60;99.90;;;;;;5094790;28;20649;-42
2023/07/05 12:03:28;;;;;;;5.30;1.60;;;21.80;99.90;;;;;;5094715;28;20189;-45
2023/07/05 12:06:10;;;;;;;3.03;0.90;;;21.90;99.90;;;;;;5094668;28;20218;-43
2023/07/05 12:08:45;;;;;;;4.57;1.13;;;21.90;96.30;;;;;;5094865;28;20159;-44
2023/07/05 12:11:14;;;;;;;4.83;1.67;;;21.90;1.00;;;;;;5094287;28;20220;-41
2023/07/05 12:13:40;;;;;;;5.10;1.30;;;21.90;99.90;;;;;;5094164;28;20197;-43
2023/07/05 12:16:14;;;;;;;5.00;1.80;;;21.90;1.00;;;;;;5092794;28;20198;-44
2023/07/05 12:18:41;;;;;;;5.47;1.20;;;21.80;1.00;;;;;;5094277;28;20159;-43
2023/07/05 12:21:07;;;;;;;4.70;1.40;;;21.70;1.00;;;;;;5094055;28;20628;-44
2023/07/05 12:23:35;;;;;;;3.10;1.40;;;21.70;1.00;;;;;;5094387;28;20258;-44
2023/07/05 12:26:04;;;;;;;4.33;1.10;;;21.80;99.90;;;;;;5093948;28;20243;-44
2023/07/05 12:28:32;;;;;;;6.80;1.37;;;21.90;1.00;;;;;;5094237;28;20702;-41
2023/07/05 12:31:01;;;;;;;3.27;1.43;;;21.90;1.00;;;;;;5094011;28;20167;-43
2023/07/05 12:33:34;;;;;;;7.03;1.60;;;22.00;99.90;;;;;;5094197;28;20257;-45
2023/07/05 12:36:10;;;;;;;3.93;1.30;;;22.00;1.00;;;;;;5094129;28;20285;-45
2023/07/05 12:38:37;;;;;;;6.60;1.40;;;22.20;99.90;;;;;;5093619;28;20194;-43
2023/07/05 12:41:07;;;;;;;3.63;1.27;;;22.20;1.00;;;;;;5093789;28;20277;-44
2023/07/05 12:43:33;;;;;;;6.23;1.50;;;22.20;1.00;;;;;;5094043;28;20203;-43
2023/07/05 12:46:21;;;;;;;3.50;1.40;;;22.30;1.00;;;;;;5093855;28;20256;-43
2023/07/05 12:48:48;;;;;;;6.50;1.40;;;22.40;1.00;;;;;;5095531;28;20632;-43
2023/07/05 12:51:26;;;;;;;4.80;1.30;;;22.40;1.00;;;;;;5093933;28;20179;-45
2023/07/05 12:53:57;;;;;;;4.00;1.60;;;22.60;1.00;;;;;;5093953;28;20183;-43
2023/07/05 12:56:35;;;;;;;4.10;2.00;;;22.70;99.90;;;;;;5094026;28;20545;-43
2023/07/05 12:59:05;;;;;;;5.50;1.80;;;22.60;1.00;;;;;;5093916;28;20516;-45
2023/07/05 13:01:34;;;;;;;6.33;1.73;;;22.30;1.00;;;;;;5093708;28;20612;-44
2023/07/05 13:04:00;;;;;;;3.63;1.40;;;22.10;1.00;;;;;;5094159;28;20175;-43